Ana Sayfa
METAR-TAF:

METAR-TAF

Havaalanları :

Şirak Havalimanı

Gümrü, Ermenistan

Enlem: 40-45-01N, Boylam: 043-51-33E, yükseklik: 1524 m

Güncel hava durumu gözlemi

Rapor saat 23:30 UTC de 33 dakika önce yapıldı.
Rüzgar değişken yönden 1 kt
Sıcaklık 7°C
Nem 76%
Basınç 1026 hPa
Görüş mesafesi: 9000 m

METAR: UDSG 152330Z VRB01KT 9000 NSC 07/03 Q1026 R02/CLRD70 NOSIG

Saat: 04:03 (00:03 UTC)

Tahmin

Rapor saat 23:02 UTC de 1 saat ve 1 dakika önce yapıldı.
Ayın 16'si saat 00 UTC'den ayın 16'si saat 24 UTC'ye kadar geçerli Tahmin
Rüzgar batı/güneybatıdan 6 kt
Görüş mesafesi 10 km veya daha fazla
5000 ft yükseklikte az bulutlu
Geçici
ayın 16'si saat 00 UTC'den ayın 16'si saat 07 UTC'ye kadar
Görüş mesafesi: 5000 m
Pus

TAF: UDSG 152302Z 1600/1624 24006KT 9999 FEW050 TEMPO 1600/1607 5000 BR

4.000'den fazla havaalanı için hava durumu gözlemleri ve tahminleri (METAR ve TAF raporları).

Kullanılabilir istasyonlar harita üzerinde sarı ve kırmızı noktalarla gösterilir.

İstasyonun adını görmek için fareyi noktanın üzerinde gezdirin.

Sonrasında hava gözlem ve tahminlerini görmek için tıklayın.

Haritayı değiştirmek için: yaklaştırmak için siyah artı işaretli yeşil düğmeye ve uzaklaştırmak için de eksi işaretli düğmeye hızla tıklayın; bitişik haritalar için yeşil okları kullanın.


METAR-TAF: